Airfield :
LOGIN :

Register | Disclaimer

   EN    FR    IT 

 










Legend :    VFR   Marginal VFR   IFR   Intensive IFR   Very Intensive IFR
Visi :
Ceiling :
>= 8 km
>= 3000ft
5 to 8 km
1000 to 3000 ft
1500m to 5 km
500 to 1000 ft
800 to 1500m
200 to 500 ft
< 800m
< 200 ft
Symbols :   Thunderstorms  Fog  Heavy snow  Heavy precipitations  Wind > 20 kt
SIGMETs :     Misc.  Thunderstorms  Icing  Turbulence  Mountain Waves  Volcanic Ashes






- Airport Elevation : 20 ft


EBFN - Koksijde

CURRENT METAR :
  • 080225Z AUTO 20014KT 9999 BKN023/// BKN230/// 09/06 Q1006 WHT

EXPIRED METARs :
  • 080220Z AUTO 21014KT 9999 SCT024/// BKN240/// 09/06 Q1007 WHT
  • 080155Z AUTO 21014KT 9999 FEW028/// SCT250/// 09/06 Q1007 BLU
  • 080125Z AUTO 21014KT 9999 OVC028/// 09/06 Q1007 BLU
  • 080055Z AUTO 21015KT 9999 OVC027/// 09/06 Q1008 BLU
  • 080025Z AUTO 21016KT 9999 FEW028/// 09/06 Q1009 BLU
  • 072355Z AUTO 20014KT 9999 BKN030/// 09/06 Q1009 BLU

TAF TAF EBFN
Valid from the 07 at 19:00 until the 08 at 07:00 UTC


071541Z 0719/0807 21010KT 9999 FEW015 SCT025
BECMG 0800/0802 21015G25KT 9999 SCT012 BKN017
TEMPO 0804/0807 20018G30KT 4000 -RA/-DZ SCT008 BKN015



MET'MAP, your aeronautical weather chart ! - Copyright ORBIFLY December 2007 - Disclaimer

ORBIFLY MET'MAP TEAM :

Programming & Development : Alexandra Zaïnal
Concept & original design : Baudouin d'Aumeries
Assistance for programming : Marc-Olivier Méhu
Technical & hardware support : Manuel Goepfert

Contact : metmap@orbifly.com




SOURCES & CREDITS :

   NOAA